Saint Anthony Village, Minnesota
Current Conditions -  °F | °C
As of 1:53 AM on Tuesday 27 Jan 2015 (Local Time) from KMIC Reporting Station
Overcast Overcast  
Wind Chill: 28°   Ceiling: 2300
Heat Index: 35°   Visibility: 10mi
Dew Point: 26°   Wind: 9mph
Humidity: 70%   Direction: 10°N
Pressure: 30.03"   Gusts: NA
Location:  45.0516°N, 93.2549°W
Report Text: KMIC 270753Z AUTO 01008KT 10SM OVC023 02/M03 A3003 RMK AO2 SLP175 T00171033
Loading
Personal Weather Stations






























Interactive Weather Map New forecast layout! Learn more

10-Day Weather Forecast

Advertisements
Track Severe Weather on mobile